createdAt,value
2023-03-16T00:04:41.425Z,66.77
2023-03-16T00:07:10.832Z,66.85
2023-03-16T00:09:41.503Z,66.86
2023-03-16T00:12:19.603Z,67.20
2023-03-16T00:14:48.683Z,67.31
2023-03-16T00:17:20.886Z,67.54
2023-03-16T00:19:56.238Z,67.52
2023-03-16T00:22:25.829Z,67.58
2023-03-16T00:24:53.103Z,67.56
2023-03-16T00:27:23.103Z,67.67
2023-03-16T00:29:56.408Z,67.80
2023-03-16T00:32:29.060Z,68.21
2023-03-16T00:34:56.137Z,68.00
2023-03-16T00:37:24.919Z,68.10
2023-03-16T00:39:52.885Z,67.93
2023-03-16T00:42:20.368Z,68.13
2023-03-16T00:44:47.211Z,67.87
2023-03-16T00:47:17.102Z,68.13
2023-03-16T00:49:44.858Z,68.26
2023-03-16T00:52:16.347Z,68.35
2023-03-16T00:54:45.322Z,68.51
2023-03-16T00:57:14.697Z,68.78
2023-03-16T00:59:41.749Z,69.02
2023-03-16T01:02:10.205Z,69.01
2023-03-16T01:04:37.493Z,68.96
2023-03-16T01:07:05.464Z,68.97
2023-03-16T01:09:37.133Z,68.70
2023-03-16T01:12:10.533Z,68.99
2023-03-16T01:14:37.923Z,69.11
2023-03-16T01:17:08.694Z,69.18
2023-03-16T01:19:38.952Z,69.32
2023-03-16T01:22:06.638Z,69.61
2023-03-16T01:24:37.193Z,69.64
2023-03-16T01:27:05.317Z,69.46
2023-03-16T01:29:33.515Z,69.34
2023-03-16T01:32:01.498Z,69.50
2023-03-16T01:34:28.784Z,69.67
2023-03-16T01:36:55.638Z,69.85
2023-03-16T01:39:22.480Z,69.82
2023-03-16T01:41:49.797Z,69.84
2023-03-16T01:44:24.509Z,70.03
2023-03-16T01:46:51.344Z,69.75
2023-03-16T01:49:20.634Z,69.65
2023-03-16T01:51:56.443Z,69.71
2023-03-16T01:54:38.246Z,69.60
2023-03-16T01:57:13.366Z,69.45
2023-03-16T01:59:49.311Z,69.37
2023-03-16T02:02:21.500Z,69.52
2023-03-16T02:05:07.205Z,69.63
2023-03-16T02:07:40.930Z,69.87
2023-03-16T02:10:09.311Z,69.89
2023-03-16T02:12:36.402Z,69.58
2023-03-16T02:15:04.530Z,69.80
2023-03-16T02:17:34.098Z,69.76
2023-03-16T02:20:26.581Z,69.76
2023-03-16T02:22:54.550Z,69.76
2023-03-16T02:25:29.172Z,69.82
2023-03-16T02:28:15.936Z,69.60
2023-03-16T02:30:43.264Z,69.63
2023-03-16T02:33:11.020Z,70.02
2023-03-16T02:35:37.801Z,69.72
2023-03-16T02:38:04.718Z,69.79
2023-03-16T02:40:34.055Z,69.97
2023-03-16T02:43:02.864Z,69.62
2023-03-16T02:45:34.958Z,69.88
2023-03-16T02:48:09.723Z,69.81
2023-03-16T02:50:37.268Z,69.65
2023-03-16T02:53:03.930Z,69.69
2023-03-16T02:55:30.647Z,69.82
2023-03-16T02:57:57.666Z,69.84
2023-03-16T03:00:24.473Z,69.45
2023-03-16T03:02:52.718Z,69.72
2023-03-16T03:05:19.775Z,69.42
2023-03-16T03:07:46.693Z,69.70
2023-03-16T03:10:13.341Z,69.51
2023-03-16T03:12:40.548Z,69.57
2023-03-16T03:15:07.970Z,69.45
2023-03-16T03:17:35.157Z,69.54
2023-03-16T03:20:14.015Z,69.95
2023-03-16T03:22:41.108Z,69.72
2023-03-16T03:25:08.936Z,69.87
2023-03-16T03:27:36.029Z,69.95
2023-03-16T03:30:04.239Z,70.25
2023-03-16T03:32:31.346Z,70.16
2023-03-16T03:34:58.163Z,70.14
2023-03-16T03:37:25.813Z,70.21
2023-03-16T03:39:53.571Z,70.15
2023-03-16T03:42:20.320Z,70.30
2023-03-16T03:44:46.979Z,70.13
2023-03-16T03:47:14.028Z,69.99
2023-03-16T03:49:41.159Z,70.18
2023-03-16T03:52:08.067Z,70.33
2023-03-16T03:54:35.280Z,70.39
2023-03-16T03:57:01.974Z,70.75
2023-03-16T03:59:28.774Z,70.53
2023-03-16T04:01:55.598Z,70.65
2023-03-16T04:04:22.529Z,70.67
2023-03-16T04:06:51.195Z,70.87
2023-03-16T04:09:18.371Z,70.77
2023-03-16T04:11:45.212Z,70.90
2023-03-16T04:14:11.912Z,70.96
2023-03-16T04:16:38.933Z,70.79
2023-03-16T04:19:05.681Z,70.81
2023-03-16T04:21:32.409Z,70.89
2023-03-16T04:23:59.336Z,71.12
2023-03-16T04:26:26.005Z,71.16
2023-03-16T04:28:52.923Z,71.25
2023-03-16T04:31:19.771Z,71.32
2023-03-16T04:33:46.759Z,71.74
2023-03-16T04:36:14.110Z,71.95
2023-03-16T04:38:42.136Z,72.25
2023-03-16T04:41:11.473Z,72.37
2023-03-16T04:43:38.577Z,72.59
2023-03-16T04:46:06.664Z,72.45
2023-03-16T04:48:33.417Z,72.27
2023-03-16T04:51:01.524Z,72.14
2023-03-16T04:53:28.443Z,71.97
2023-03-16T04:55:55.127Z,72.03
2023-03-16T04:58:22.894Z,72.14
2023-03-16T05:00:52.224Z,72.35
2023-03-16T05:03:19.072Z,72.14
2023-03-16T05:05:47.365Z,72.32
2023-03-16T05:08:14.273Z,72.18
2023-03-16T05:10:41.157Z,72.31
2023-03-16T05:13:07.969Z,72.29
2023-03-16T05:15:34.886Z,72.66
2023-03-16T05:18:01.979Z,72.45
2023-03-16T05:20:28.804Z,72.74
2023-03-16T05:22:55.884Z,72.76
2023-03-16T05:25:23.018Z,72.62
2023-03-16T05:27:52.209Z,72.85
2023-03-16T05:30:19.261Z,72.75
2023-03-16T05:32:46.745Z,72.58
2023-03-16T05:35:14.338Z,72.67
2023-03-16T05:37:42.183Z,72.78
2023-03-16T05:40:17.835Z,72.60
2023-03-16T05:42:46.561Z,73.02
2023-03-16T05:45:14.890Z,72.74
2023-03-16T05:47:42.459Z,72.88
2023-03-16T05:50:11.672Z,72.49
2023-03-16T05:52:39.437Z,72.38
2023-03-16T05:55:08.579Z,72.32
2023-03-16T05:57:35.547Z,72.09
2023-03-16T06:00:25.479Z,71.99
2023-03-16T06:02:52.818Z,72.02
2023-03-16T06:05:25.305Z,72.15
2023-03-16T06:07:53.658Z,72.10
2023-03-16T06:10:20.756Z,71.81
2023-03-16T06:12:47.670Z,71.89
2023-03-16T06:15:15.253Z,72.21
2023-03-16T06:17:42.239Z,71.96
2023-03-16T06:20:11.590Z,72.17
2023-03-16T06:22:40.044Z,71.89
2023-03-16T06:25:08.560Z,71.93
2023-03-16T06:27:35.731Z,72.09
2023-03-16T06:30:02.855Z,72.14
2023-03-16T06:32:29.567Z,71.99
2023-03-16T06:34:56.634Z,71.75
2023-03-16T06:37:23.636Z,71.87
2023-03-16T06:39:50.715Z,71.77
2023-03-16T06:42:17.390Z,71.97
2023-03-16T06:44:44.255Z,71.84
2023-03-16T06:47:11.891Z,72.22
2023-03-16T06:49:38.651Z,71.92
2023-03-16T06:52:05.636Z,71.98
2023-03-16T06:54:37.479Z,71.86
2023-03-16T06:57:04.416Z,72.07
2023-03-16T06:59:31.465Z,72.21
2023-03-16T07:01:58.140Z,72.02
2023-03-16T07:04:24.920Z,71.94
2023-03-16T07:06:51.769Z,71.78
2023-03-16T07:09:18.530Z,72.06
2023-03-16T07:11:45.325Z,71.88
2023-03-16T07:14:12.491Z,71.93
2023-03-16T07:16:39.242Z,72.30
2023-03-16T07:19:06.080Z,72.28
2023-03-16T07:21:39.500Z,72.45
2023-03-16T07:24:07.047Z,72.66
2023-03-16T07:26:33.782Z,72.40
2023-03-16T07:29:00.815Z,72.84
2023-03-16T07:31:27.924Z,72.68
2023-03-16T07:33:54.943Z,72.69
2023-03-16T07:36:21.788Z,72.67
2023-03-16T07:38:48.607Z,72.86
2023-03-16T07:41:15.414Z,72.57
2023-03-16T07:43:42.205Z,72.60
2023-03-16T07:46:09.086Z,72.63
2023-03-16T07:48:35.911Z,72.53
2023-03-16T07:51:02.827Z,72.49
2023-03-16T07:53:29.601Z,72.23
2023-03-16T07:55:56.546Z,72.31
2023-03-16T07:58:23.552Z,71.86
2023-03-16T08:00:50.211Z,72.18
2023-03-16T08:03:17.055Z,71.68
2023-03-16T08:05:44.052Z,71.61
2023-03-16T08:08:10.649Z,71.61
2023-03-16T08:10:37.406Z,71.62
2023-03-16T08:13:07.526Z,71.62
2023-03-16T08:15:35.129Z,71.39
2023-03-16T08:18:05.712Z,71.31
2023-03-16T08:20:32.644Z,71.19
2023-03-16T08:22:59.930Z,71.34
2023-03-16T08:25:26.740Z,71.20
2023-03-16T08:27:53.726Z,71.26
2023-03-16T08:30:22.700Z,71.47
2023-03-16T08:32:50.651Z,71.46
2023-03-16T08:35:18.042Z,71.63
2023-03-16T08:37:46.390Z,71.45
2023-03-16T08:40:19.612Z,71.79
2023-03-16T08:42:46.442Z,71.45
2023-03-16T08:45:14.320Z,71.51
2023-03-16T08:47:41.862Z,71.44
2023-03-16T08:50:09.903Z,71.52
2023-03-16T08:52:36.742Z,71.38
2023-03-16T08:55:05.913Z,71.20
2023-03-16T08:57:33.997Z,70.98
2023-03-16T09:00:01.424Z,71.25
2023-03-16T09:02:28.614Z,71.09
2023-03-16T09:04:56.409Z,71.28
2023-03-16T09:07:23.499Z,71.34
2023-03-16T09:09:51.565Z,71.48
2023-03-16T09:12:18.768Z,71.50
2023-03-16T09:14:46.110Z,71.52
2023-03-16T09:17:13.133Z,71.80
2023-03-16T09:19:51.190Z,71.54
2023-03-16T09:22:20.356Z,71.68
2023-03-16T09:24:48.557Z,71.69
2023-03-16T09:27:16.132Z,71.78
2023-03-16T09:29:44.030Z,72.03
2023-03-16T09:32:11.171Z,71.92
2023-03-16T09:34:38.119Z,72.24
2023-03-16T09:37:05.509Z,72.32
2023-03-16T09:39:32.247Z,72.03
2023-03-16T09:42:22.070Z,72.39
2023-03-16T09:45:26.712Z,71.78
2023-03-16T09:47:58.666Z,72.02
2023-03-16T09:50:47.092Z,72.09
2023-03-16T09:53:29.876Z,72.08
2023-03-16T09:56:06.001Z,71.83
2023-03-16T09:58:33.192Z,71.68
2023-03-16T10:01:37.426Z,71.46
2023-03-16T10:04:43.384Z,71.27
2023-03-16T10:07:12.235Z,71.50
2023-03-16T10:10:09.943Z,71.14
2023-03-16T10:12:43.604Z,71.37
2023-03-16T10:15:18.605Z,71.43
2023-03-16T10:17:50.183Z,71.26
2023-03-16T10:20:21.339Z,71.03
2023-03-16T10:22:52.486Z,71.40
2023-03-16T10:25:42.071Z,71.31
2023-03-16T10:28:26.263Z,71.61
2023-03-16T10:30:55.892Z,71.59
2023-03-16T10:33:33.982Z,71.56
2023-03-16T10:36:04.091Z,71.66
2023-03-16T10:38:38.772Z,71.80
2023-03-16T10:41:23.776Z,71.59
2023-03-16T10:43:52.029Z,71.72
2023-03-16T10:46:19.121Z,71.68
2023-03-16T10:49:02.190Z,71.58
2023-03-16T10:51:36.626Z,71.40
2023-03-16T10:54:27.767Z,71.18
2023-03-16T10:56:55.557Z,71.32
2023-03-16T10:59:34.531Z,71.36
2023-03-16T11:02:23.891Z,71.25
2023-03-16T11:04:51.922Z,71.10
2023-03-16T11:07:21.043Z,71.13
2023-03-16T11:09:49.059Z,71.24
2023-03-16T11:12:24.756Z,71.17
2023-03-16T11:14:52.145Z,71.01
2023-03-16T11:17:35.376Z,71.23
2023-03-16T11:20:12.392Z,70.95
2023-03-16T11:22:41.049Z,71.38
2023-03-16T11:25:29.751Z,71.34
2023-03-16T11:28:17.983Z,71.16
2023-03-16T11:30:55.547Z,71.34
2023-03-16T11:33:23.331Z,71.52
2023-03-16T11:36:31.088Z,71.64
2023-03-16T11:39:27.772Z,71.59
2023-03-16T11:42:10.223Z,71.65
2023-03-16T11:44:48.275Z,71.85
2023-03-16T11:47:44.243Z,71.69
2023-03-16T11:50:23.114Z,71.83
2023-03-16T11:53:05.087Z,71.71
2023-03-16T11:55:57.809Z,71.84
2023-03-16T11:58:40.059Z,72.01
2023-03-16T12:01:13.857Z,71.83
2023-03-16T12:04:02.265Z,71.78
2023-03-16T12:07:30.572Z,71.76
2023-03-16T12:10:24.270Z,71.49
2023-03-16T12:13:16.529Z,71.37
2023-03-16T12:15:50.127Z,71.33
2023-03-16T12:18:22.441Z,71.38
2023-03-16T12:21:08.367Z,71.61
2023-03-16T12:24:07.703Z,71.51
2023-03-16T12:26:39.922Z,71.44
2023-03-16T12:29:31.594Z,71.43
2023-03-16T12:32:12.010Z,71.60
2023-03-16T12:34:55.195Z,71.39
2023-03-16T12:37:57.191Z,71.27
2023-03-16T12:40:55.498Z,71.32
2023-03-16T12:43:25.601Z,71.38
2023-03-16T12:45:59.541Z,71.33
2023-03-16T12:48:34.415Z,71.36
2023-03-16T12:51:03.817Z,71.30
2023-03-16T12:53:53.312Z,71.39
2023-03-16T12:56:30.452Z,71.29
2023-03-16T12:59:03.349Z,71.29
2023-03-16T13:01:38.550Z,71.50
2023-03-16T13:04:16.263Z,71.21
2023-03-16T13:06:50.729Z,71.44
2023-03-16T13:09:28.197Z,71.20
2023-03-16T13:11:55.608Z,71.11
2023-03-16T13:14:44.414Z,71.15
2023-03-16T13:17:17.597Z,71.07
2023-03-16T13:19:47.842Z,71.16
2023-03-16T13:22:28.519Z,71.24
2023-03-16T13:25:18.162Z,71.15
2023-03-16T13:27:48.152Z,71.24
2023-03-16T13:30:24.472Z,71.13
2023-03-16T13:33:21.214Z,71.04
2023-03-16T13:35:52.946Z,71.06
2023-03-16T13:38:31.790Z,70.85
2023-03-16T13:41:18.693Z,70.82
2023-03-16T13:43:46.939Z,71.15
2023-03-16T13:46:18.977Z,71.10
2023-03-16T13:48:48.373Z,70.96
2023-03-16T13:51:18.850Z,70.94
2023-03-16T13:53:45.807Z,70.63
2023-03-16T13:56:18.307Z,70.74
2023-03-16T13:58:50.082Z,70.82
2023-03-16T14:01:26.428Z,70.87
2023-03-16T14:03:55.356Z,70.99
2023-03-16T14:06:31.581Z,70.77
2023-03-16T14:09:05.614Z,71.09
2023-03-16T14:11:32.770Z,71.09
2023-03-16T14:14:00.844Z,71.07
2023-03-16T14:16:32.240Z,70.73
2023-03-16T14:19:04.355Z,71.01
2023-03-16T14:21:36.457Z,71.00
2023-03-16T14:24:06.380Z,71.27
2023-03-16T14:26:49.433Z,71.18
2023-03-16T14:29:32.558Z,71.25
2023-03-16T14:32:00.240Z,71.12
2023-03-16T14:34:30.274Z,71.44
2023-03-16T14:37:12.613Z,71.20
2023-03-16T14:39:42.756Z,71.43
2023-03-16T14:42:30.611Z,71.15
2023-03-16T14:44:59.996Z,71.03
2023-03-16T14:47:30.866Z,71.23
2023-03-16T14:50:05.168Z,70.97
2023-03-16T14:52:33.722Z,71.09
2023-03-16T14:55:10.094Z,71.02
2023-03-16T14:57:37.048Z,70.78
2023-03-16T15:00:05.600Z,70.88
2023-03-16T15:02:33.632Z,71.05
2023-03-16T15:05:03.026Z,70.96
2023-03-16T15:07:32.997Z,70.95
2023-03-16T15:10:23.177Z,70.95
2023-03-16T15:13:04.396Z,70.91
2023-03-16T15:15:31.855Z,71.02
2023-03-16T15:17:59.345Z,71.25
2023-03-16T15:20:31.945Z,71.31
2023-03-16T15:22:59.767Z,71.01
2023-03-16T15:25:37.263Z,71.45
2023-03-16T15:28:19.104Z,71.12
2023-03-16T15:30:48.562Z,71.13
2023-03-16T15:33:15.893Z,70.98
2023-03-16T15:35:44.296Z,70.75
2023-03-16T15:38:16.834Z,71.00
2023-03-16T15:40:46.215Z,70.82
2023-03-16T15:43:15.153Z,70.80
2023-03-16T15:45:41.984Z,71.10
2023-03-16T15:48:11.032Z,71.16
2023-03-16T15:50:41.022Z,70.79
2023-03-16T15:53:29.625Z,71.23
2023-03-16T15:56:09.662Z,70.90
2023-03-16T15:58:38.288Z,71.05
2023-03-16T16:01:07.333Z,71.02
2023-03-16T16:03:34.406Z,70.83
2023-03-16T16:06:02.076Z,71.11
2023-03-16T16:08:28.820Z,71.07
2023-03-16T16:10:56.462Z,71.15
2023-03-16T16:13:37.526Z,71.19
2023-03-16T16:16:20.185Z,71.23
2023-03-16T16:18:48.552Z,71.14
2023-03-16T16:21:27.598Z,71.17
2023-03-16T16:23:55.334Z,71.21
2023-03-16T16:26:48.163Z,71.15
2023-03-16T16:29:22.961Z,71.04
2023-03-16T16:31:51.540Z,71.04
2023-03-16T16:34:28.177Z,71.16
2023-03-16T16:36:56.446Z,71.04
2023-03-16T16:39:24.013Z,71.18
2023-03-16T16:41:52.524Z,71.33
2023-03-16T16:44:23.565Z,71.22
2023-03-16T16:46:52.139Z,71.27
2023-03-16T16:49:30.763Z,71.30
2023-03-16T16:51:58.496Z,71.51
2023-03-16T16:54:28.861Z,71.21
2023-03-16T16:56:58.241Z,71.53
2023-03-16T16:59:37.470Z,71.39
2023-03-16T17:02:21.512Z,71.39
2023-03-16T17:04:50.695Z,71.34
2023-03-16T17:07:18.163Z,71.17
2023-03-16T17:09:45.353Z,71.31
2023-03-16T17:12:21.871Z,71.40
2023-03-16T17:14:50.090Z,71.17
2023-03-16T17:17:18.763Z,71.52
2023-03-16T17:19:47.058Z,71.15
2023-03-16T17:22:24.789Z,71.44
2023-03-16T17:24:53.180Z,71.36
2023-03-16T17:27:27.302Z,71.20
2023-03-16T17:29:54.748Z,71.42
2023-03-16T17:32:25.627Z,71.28
2023-03-16T17:34:52.834Z,71.37
2023-03-16T17:37:21.185Z,71.38
2023-03-16T17:39:48.268Z,71.36
2023-03-16T17:42:18.645Z,71.70
2023-03-16T17:44:48.054Z,71.54
2023-03-16T17:47:30.260Z,71.83
2023-03-16T17:49:57.146Z,71.72
2023-03-16T17:52:26.347Z,72.10
2023-03-16T17:54:54.949Z,72.09
2023-03-16T17:57:27.453Z,71.85
2023-03-16T17:59:55.004Z,71.92
2023-03-16T18:02:50.069Z,72.11
2023-03-16T18:05:32.676Z,72.11
2023-03-16T18:08:07.363Z,71.94
2023-03-16T18:10:34.328Z,72.06
2023-03-16T18:13:05.002Z,72.17
2023-03-16T18:15:35.049Z,72.05
2023-03-16T18:18:02.600Z,72.22
2023-03-16T18:20:34.572Z,72.14
2023-03-16T18:23:03.599Z,72.42
2023-03-16T18:25:39.368Z,72.34
2023-03-16T18:28:08.272Z,72.43
2023-03-16T18:30:38.545Z,72.43
2023-03-16T18:33:28.243Z,72.56
2023-03-16T18:35:57.535Z,72.51
2023-03-16T18:38:39.480Z,72.36
2023-03-16T18:41:24.996Z,72.49
2023-03-16T18:43:53.999Z,72.32
2023-03-16T18:46:29.027Z,72.57
2023-03-16T18:48:59.346Z,72.70
2023-03-16T18:51:27.529Z,72.71
2023-03-16T18:53:55.076Z,72.88
2023-03-16T18:56:27.402Z,72.73
2023-03-16T18:58:56.227Z,72.70
2023-03-16T19:01:29.623Z,72.92
2023-03-16T19:03:57.964Z,72.83
2023-03-16T19:06:37.491Z,72.92
2023-03-16T19:09:13.390Z,72.97
2023-03-16T19:11:43.603Z,73.29
2023-03-16T19:14:20.649Z,73.05
2023-03-16T19:16:47.921Z,73.24
2023-03-16T19:19:15.576Z,73.16
2023-03-16T19:21:43.221Z,73.06
2023-03-16T19:24:22.092Z,73.13
2023-03-16T19:26:49.059Z,73.02
2023-03-16T19:29:16.062Z,73.00
2023-03-16T19:31:43.002Z,73.00
2023-03-16T19:34:18.232Z,73.07
2023-03-16T19:36:45.850Z,72.92
2023-03-16T19:39:14.555Z,72.89
2023-03-16T19:41:41.437Z,73.27
2023-03-16T19:44:16.124Z,72.85
2023-03-16T19:46:45.271Z,72.79
2023-03-16T19:49:19.878Z,72.99
2023-03-16T19:51:48.033Z,72.97
2023-03-16T19:54:35.227Z,73.03
2023-03-16T19:57:07.554Z,73.15
2023-03-16T19:59:35.559Z,73.49
2023-03-16T20:02:02.848Z,73.11
2023-03-16T20:04:30.416Z,73.00
2023-03-16T20:06:57.357Z,73.08
2023-03-16T20:09:24.301Z,73.11
2023-03-16T20:11:52.479Z,73.20
2023-03-16T20:14:27.135Z,72.99
2023-03-16T20:16:55.141Z,73.31
2023-03-16T20:19:23.167Z,73.04
2023-03-16T20:21:50.100Z,72.95
2023-03-16T20:24:19.267Z,73.28
2023-03-16T20:26:48.016Z,73.11
2023-03-16T20:29:35.915Z,73.04
2023-03-16T20:32:06.853Z,73.03
2023-03-16T20:34:33.693Z,73.18
2023-03-16T20:37:00.602Z,73.20
2023-03-16T20:39:27.946Z,73.04
2023-03-16T20:41:54.798Z,73.08
2023-03-16T20:44:25.333Z,73.13
2023-03-16T20:46:52.333Z,73.15
2023-03-16T20:49:22.115Z,73.02
2023-03-16T20:51:50.240Z,72.92
2023-03-16T20:54:17.764Z,72.87
2023-03-16T20:56:44.683Z,73.06
2023-03-16T20:59:20.534Z,73.03
2023-03-16T21:01:48.131Z,73.19
2023-03-16T21:04:22.586Z,73.13
2023-03-16T21:06:51.080Z,72.80
2023-03-16T21:09:19.656Z,73.19
2023-03-16T21:11:47.644Z,72.87
2023-03-16T21:14:21.021Z,73.23
2023-03-16T21:16:47.919Z,73.04
2023-03-16T21:19:17.285Z,72.98
2023-03-16T21:21:44.401Z,72.95
2023-03-16T21:24:11.710Z,73.09
2023-03-16T21:26:40.016Z,73.10
2023-03-16T21:29:13.595Z,73.07
2023-03-16T21:31:41.262Z,73.01
2023-03-16T21:34:23.931Z,73.31
2023-03-16T21:36:50.967Z,73.11
2023-03-16T21:39:22.446Z,73.17
2023-03-16T21:41:50.811Z,73.32
2023-03-16T21:44:18.527Z,73.16
2023-03-16T21:46:47.321Z,73.05
2023-03-16T21:49:14.903Z,73.34
2023-03-16T21:51:43.366Z,73.41
2023-03-16T21:54:19.438Z,73.25
2023-03-16T21:56:47.922Z,73.47
2023-03-16T21:59:15.629Z,73.50
2023-03-16T22:01:58.652Z,73.58
2023-03-16T22:04:28.780Z,73.35
2023-03-16T22:06:55.584Z,73.26
2023-03-16T22:09:22.768Z,73.49
2023-03-16T22:11:49.931Z,73.77
2023-03-16T22:14:16.620Z,73.61
2023-03-16T22:16:43.855Z,73.78
2023-03-16T22:19:14.762Z,73.58
2023-03-16T22:21:43.891Z,73.61
2023-03-16T22:24:19.528Z,73.64
2023-03-16T22:26:47.654Z,73.34
2023-03-16T22:29:25.532Z,73.47
2023-03-16T22:31:56.561Z,73.38
2023-03-16T22:34:29.349Z,73.62
2023-03-16T22:36:57.580Z,73.11
2023-03-16T22:39:24.485Z,73.27
2023-03-16T22:41:52.115Z,73.08
2023-03-16T22:44:22.762Z,73.32
2023-03-16T22:46:50.378Z,73.22
2023-03-16T22:49:27.869Z,72.97
2023-03-16T22:51:57.478Z,72.96
2023-03-16T22:54:27.396Z,73.04
2023-03-16T22:56:55.157Z,72.94
2023-03-16T22:59:25.130Z,73.04
2023-03-16T23:01:51.960Z,72.88
2023-03-16T23:04:24.869Z,73.07
2023-03-16T23:06:55.158Z,72.80
2023-03-16T23:09:22.453Z,72.67
2023-03-16T23:11:55.288Z,72.69
2023-03-16T23:14:24.456Z,72.42
2023-03-16T23:16:55.480Z,72.34
2023-03-16T23:19:32.500Z,72.76
2023-03-16T23:22:05.079Z,72.37
2023-03-16T23:24:36.211Z,72.41
2023-03-16T23:27:04.610Z,72.10
2023-03-16T23:29:31.896Z,72.00
2023-03-16T23:31:59.141Z,72.05
2023-03-16T23:34:26.458Z,71.91
2023-03-16T23:36:55.196Z,72.43
2023-03-16T23:39:22.309Z,72.17
2023-03-16T23:41:50.299Z,71.86
2023-03-16T23:44:23.525Z,71.85
2023-03-16T23:46:51.548Z,71.88
2023-03-16T23:49:27.935Z,71.91
2023-03-16T23:51:56.984Z,71.79
2023-03-16T23:54:26.548Z,71.77
2023-03-16T23:56:54.826Z,71.80
2023-03-16T23:59:23.505Z,71.70
